createdAt,value
2019-01-08T00:01:00.635Z,5.03
2019-01-08T00:03:27.181Z,4.87
2019-01-08T00:05:53.724Z,5.63
2019-01-08T00:08:20.271Z,5.67
2019-01-08T00:10:46.813Z,4.47
2019-01-08T00:13:13.379Z,4.73
2019-01-08T00:15:40.022Z,5.60
2019-01-08T00:18:06.555Z,4.97
2019-01-08T00:20:33.116Z,5.03
2019-01-08T00:22:59.653Z,4.87
2019-01-08T00:25:26.203Z,5.17
2019-01-08T00:27:52.744Z,5.37
2019-01-08T00:30:19.579Z,5.27
2019-01-08T00:32:46.198Z,4.63
2019-01-08T00:35:12.749Z,4.40
2019-01-08T00:37:39.292Z,5.53
2019-01-08T00:40:06.254Z,5.17
2019-01-08T00:42:32.796Z,4.50
2019-01-08T00:44:59.332Z,4.47
2019-01-08T00:47:25.881Z,4.70
2019-01-08T00:49:52.431Z,4.03
2019-01-08T00:52:18.968Z,4.20
2019-01-08T00:54:45.683Z,3.87
2019-01-08T00:57:12.455Z,3.50
2019-01-08T00:59:39.013Z,3.67
2019-01-08T01:02:05.559Z,4.13
2019-01-08T01:04:32.120Z,4.33
2019-01-08T01:06:58.667Z,3.97
2019-01-08T01:09:25.215Z,4.33
2019-01-08T01:11:51.760Z,7.80
2019-01-08T01:14:18.313Z,3.87
2019-01-08T01:16:44.860Z,4.63
2019-01-08T01:19:11.416Z,3.67
2019-01-08T01:21:37.955Z,4.43
2019-01-08T01:24:04.495Z,3.73
2019-01-08T01:26:31.052Z,4.23
2019-01-08T01:29:00.165Z,4.00
2019-01-08T01:31:26.053Z,4.53
2019-01-08T01:33:52.588Z,3.93
2019-01-08T01:36:19.142Z,3.80
2019-01-08T01:38:45.715Z,3.40
2019-01-08T01:41:12.255Z,4.17
2019-01-08T01:43:38.802Z,3.10
2019-01-08T01:46:05.356Z,3.47
2019-01-08T01:48:31.913Z,4.17
2019-01-08T01:50:58.480Z,4.17
2019-01-08T01:53:25.090Z,4.30
2019-01-08T01:55:51.777Z,4.40
2019-01-08T01:58:18.315Z,4.07
2019-01-08T02:00:44.872Z,3.83
2019-01-08T02:03:11.420Z,4.67
2019-01-08T02:05:37.978Z,3.93
2019-01-08T02:08:04.619Z,4.00
2019-01-08T02:10:31.172Z,3.73
2019-01-08T02:12:57.717Z,3.53
2019-01-08T02:15:24.265Z,3.80
2019-01-08T02:17:50.807Z,3.37
2019-01-08T02:20:17.348Z,2.70
2019-01-08T02:22:43.904Z,3.10
2019-01-08T02:25:10.450Z,2.33
2019-01-08T02:27:37.501Z,2.67
2019-01-08T02:30:05.842Z,2.83
2019-01-08T02:32:32.403Z,2.60
2019-01-08T02:34:58.942Z,2.30
2019-01-08T02:37:25.493Z,2.00
2019-01-08T02:39:52.040Z,2.40
2019-01-08T02:42:18.595Z,2.13
2019-01-08T02:44:45.308Z,2.07
2019-01-08T02:47:11.964Z,2.07
2019-01-08T02:49:38.521Z,1.80
2019-01-08T02:52:05.068Z,1.90
2019-01-08T02:54:31.600Z,2.13
2019-01-08T02:56:58.151Z,1.80
2019-01-08T02:59:25.239Z,1.80
2019-01-08T03:01:52.158Z,1.70
2019-01-08T03:04:18.701Z,1.70
2019-01-08T03:06:45.253Z,2.00
2019-01-08T03:09:11.786Z,1.90
2019-01-08T03:11:38.349Z,1.80
2019-01-08T03:14:04.895Z,1.83
2019-01-08T03:16:31.439Z,1.83
2019-01-08T03:18:57.984Z,1.70
2019-01-08T03:21:24.547Z,1.67
2019-01-08T03:23:51.089Z,1.60
2019-01-08T03:26:17.656Z,1.27
2019-01-08T03:28:44.200Z,1.40
2019-01-08T03:31:10.747Z,1.33
2019-01-08T03:33:37.313Z,1.40
2019-01-08T03:36:03.856Z,1.27
2019-01-08T03:38:30.416Z,1.00
2019-01-08T03:40:56.956Z,1.03
2019-01-08T03:43:23.512Z,1.10
2019-01-08T03:45:50.121Z,1.00
2019-01-08T03:48:17.053Z,1.20
2019-01-08T03:50:43.619Z,1.00
2019-01-08T03:53:10.163Z,1.03
2019-01-08T03:55:36.705Z,1.03
2019-01-08T03:58:03.256Z,0.90
2019-01-08T04:00:29.799Z,0.93
2019-01-08T04:02:56.387Z,1.10
2019-01-08T04:05:22.920Z,1.13
2019-01-08T04:07:49.477Z,0.83
2019-01-08T04:10:16.018Z,1.07
2019-01-08T04:12:42.570Z,1.00
2019-01-08T04:15:09.108Z,1.20
2019-01-08T04:17:35.661Z,1.10
2019-01-08T04:20:02.505Z,0.93
2019-01-08T04:22:29.073Z,1.07
2019-01-08T04:24:55.616Z,1.20
2019-01-08T04:27:22.164Z,1.10
2019-01-08T04:29:50.584Z,1.20
2019-01-08T04:32:17.463Z,1.00
2019-01-08T04:34:44.021Z,1.17
2019-01-08T04:37:10.557Z,1.27
2019-01-08T04:39:37.113Z,1.20
2019-01-08T04:42:03.752Z,1.10
2019-01-08T04:44:30.316Z,1.20
2019-01-08T04:46:56.859Z,1.20
2019-01-08T04:49:23.440Z,1.20
2019-01-08T04:51:49.998Z,1.10
2019-01-08T04:54:16.547Z,0.97
2019-01-08T04:56:43.104Z,1.10
2019-01-08T04:59:09.656Z,1.03
2019-01-08T05:01:36.200Z,1.10
2019-01-08T05:04:02.756Z,1.00
2019-01-08T05:06:29.302Z,0.83
2019-01-08T05:08:55.855Z,1.20
2019-01-08T05:11:22.401Z,1.20
2019-01-08T05:13:49.011Z,1.20
2019-01-08T05:16:15.821Z,1.20
2019-01-08T05:18:42.364Z,1.27
2019-01-08T05:21:08.926Z,1.20
2019-01-08T05:23:35.465Z,1.27
2019-01-08T05:26:02.017Z,1.20
2019-01-08T05:28:28.563Z,1.30
2019-01-08T05:30:55.122Z,1.10
2019-01-08T05:33:21.663Z,1.17
2019-01-08T05:35:48.215Z,1.17
2019-01-08T05:38:14.747Z,1.30
2019-01-08T05:40:41.296Z,1.00
2019-01-08T05:43:07.838Z,1.20
2019-01-08T05:45:34.388Z,1.00
2019-01-08T05:48:00.933Z,0.97
2019-01-08T05:50:27.496Z,1.40
2019-01-08T05:52:54.040Z,1.10
2019-01-08T05:55:20.599Z,1.33
2019-01-08T05:57:47.140Z,1.10
2019-01-08T06:00:16.615Z,1.20
2019-01-08T06:02:42.139Z,1.13
2019-01-08T06:05:08.714Z,1.10
2019-01-08T06:07:35.277Z,0.97
2019-01-08T06:10:02.444Z,1.00
2019-01-08T06:12:28.988Z,0.90
2019-01-08T06:14:55.892Z,0.90
2019-01-08T06:17:22.431Z,0.90
2019-01-08T06:19:48.972Z,1.00
2019-01-08T06:22:15.527Z,1.23
2019-01-08T06:24:42.071Z,2.13
2019-01-08T06:27:08.615Z,1.10
2019-01-08T06:29:35.156Z,1.33
2019-01-08T06:32:01.705Z,1.20
2019-01-08T06:34:28.242Z,1.57
2019-01-08T06:36:54.793Z,1.60
2019-01-08T06:39:21.329Z,2.20
2019-01-08T06:41:47.890Z,1.77
2019-01-08T06:44:14.427Z,2.00
2019-01-08T06:46:43.255Z,1.90
2019-01-08T06:49:09.455Z,1.80
2019-01-08T06:51:35.999Z,2.00
2019-01-08T06:54:02.547Z,2.10
2019-01-08T06:56:29.115Z,2.03
2019-01-08T06:58:55.660Z,2.07
2019-01-08T07:01:22.204Z,2.00
2019-01-08T07:03:48.743Z,1.77
2019-01-08T07:06:15.295Z,2.00
2019-01-08T07:08:41.854Z,2.10
2019-01-08T07:11:08.400Z,2.33
2019-01-08T07:13:34.953Z,2.00
2019-01-08T07:16:01.500Z,2.60
2019-01-08T07:18:28.036Z,2.53
2019-01-08T07:20:54.592Z,2.63
2019-01-08T07:23:21.140Z,2.20
2019-01-08T07:25:47.687Z,2.20
2019-01-08T07:28:14.232Z,2.13
2019-01-08T07:30:41.668Z,2.50
2019-01-08T07:33:08.629Z,1.87
2019-01-08T07:35:35.163Z,2.50
2019-01-08T07:38:01.717Z,2.47
2019-01-08T07:40:28.256Z,2.40
2019-01-08T07:42:54.808Z,2.63
2019-01-08T07:45:21.365Z,2.40
2019-01-08T07:47:47.907Z,2.30
2019-01-08T07:50:14.467Z,2.47
2019-01-08T07:52:41.019Z,2.40
2019-01-08T07:55:07.564Z,3.13
2019-01-08T07:57:34.121Z,2.50
2019-01-08T08:00:01.079Z,2.73
2019-01-08T08:02:27.631Z,2.53
2019-01-08T08:04:54.175Z,3.57
2019-01-08T08:07:20.725Z,2.63
2019-01-08T08:09:47.251Z,2.67
2019-01-08T08:12:13.811Z,2.57
2019-01-08T08:14:40.352Z,2.60
2019-01-08T08:17:06.903Z,2.87
2019-01-08T08:19:33.443Z,3.00
2019-01-08T08:21:59.991Z,2.30
2019-01-08T08:24:26.525Z,1.90
2019-01-08T08:26:53.063Z,1.40
2019-01-08T08:29:19.596Z,1.60
2019-01-08T08:31:46.139Z,1.60
2019-01-08T08:34:12.688Z,1.90
2019-01-08T08:36:39.227Z,1.90
2019-01-08T08:39:05.765Z,2.10
2019-01-08T08:41:32.359Z,1.93
2019-01-08T08:43:58.896Z,1.90
2019-01-08T08:46:25.438Z,1.60
2019-01-08T08:48:51.990Z,1.60
2019-01-08T08:51:18.544Z,2.37
2019-01-08T08:53:52.415Z,2.40
2019-01-08T08:56:13.539Z,3.10
2019-01-08T08:58:40.092Z,2.97
2019-01-08T09:01:07.121Z,2.13
2019-01-08T09:03:34.084Z,2.60
2019-01-08T09:06:00.628Z,3.37
2019-01-08T09:08:27.171Z,3.77
2019-01-08T09:10:53.703Z,3.07
2019-01-08T09:13:20.258Z,2.90
2019-01-08T09:15:47.068Z,3.10
2019-01-08T09:18:13.625Z,2.77
2019-01-08T09:20:40.158Z,2.57
2019-01-08T09:23:06.711Z,2.13
2019-01-08T09:25:33.242Z,7.63
2019-01-08T09:27:59.804Z,2.70
2019-01-08T09:30:26.340Z,2.47
2019-01-08T09:32:52.891Z,2.60
2019-01-08T09:35:19.428Z,2.37
2019-01-08T09:37:45.985Z,2.53
2019-01-08T09:40:12.522Z,2.33
2019-01-08T09:42:39.068Z,2.47
2019-01-08T09:45:06.004Z,2.87
2019-01-08T09:47:32.566Z,2.90
2019-01-08T09:49:59.108Z,2.60
2019-01-08T09:52:25.654Z,1.87
2019-01-08T09:54:52.197Z,2.40
2019-01-08T09:57:18.746Z,1.97
2019-01-08T09:59:45.282Z,1.87
2019-01-08T10:02:11.835Z,2.77
2019-01-08T10:04:38.381Z,2.57
2019-01-08T10:07:04.929Z,2.07
2019-01-08T10:09:31.465Z,2.10
2019-01-08T10:11:58.005Z,2.17
2019-01-08T10:14:24.543Z,2.50
2019-01-08T10:16:51.095Z,3.10
2019-01-08T10:19:17.637Z,2.20
2019-01-08T10:21:44.179Z,2.20
2019-01-08T10:24:10.710Z,2.07
2019-01-08T10:26:37.248Z,1.90
2019-01-08T10:29:03.795Z,2.67
2019-01-08T10:31:32.545Z,2.20
2019-01-08T10:33:58.831Z,2.30
2019-01-08T10:36:25.360Z,2.00
2019-01-08T10:38:51.907Z,1.87
2019-01-08T10:41:18.439Z,2.67
2019-01-08T10:43:44.996Z,2.57
2019-01-08T10:46:11.529Z,2.50
2019-01-08T10:48:38.080Z,2.60
2019-01-08T10:51:04.631Z,2.67
2019-01-08T10:53:31.180Z,2.97
2019-01-08T10:55:57.717Z,1.90
2019-01-08T10:58:24.263Z,2.20
2019-01-08T11:00:50.803Z,2.00
2019-01-08T11:03:17.356Z,2.40
2019-01-08T11:05:43.897Z,2.07
2019-01-08T11:08:10.450Z,1.97
2019-01-08T11:10:36.995Z,2.27
2019-01-08T11:13:03.548Z,2.50
2019-01-08T11:15:30.083Z,2.03
2019-01-08T11:17:56.615Z,2.00
2019-01-08T11:20:23.160Z,2.37
2019-01-08T11:22:49.707Z,1.90
2019-01-08T11:25:16.258Z,2.27
2019-01-08T11:27:42.880Z,2.03
2019-01-08T11:30:09.644Z,2.07
2019-01-08T11:32:36.192Z,2.10
2019-01-08T11:35:02.943Z,2.40
2019-01-08T11:37:29.483Z,2.27
2019-01-08T11:39:56.026Z,1.80
2019-01-08T11:42:22.577Z,2.30
2019-01-08T11:44:49.110Z,1.93
2019-01-08T11:47:15.680Z,2.30
2019-01-08T11:49:42.240Z,1.97
2019-01-08T11:52:08.775Z,2.33
2019-01-08T11:54:40.938Z,1.77
2019-01-08T11:57:04.021Z,2.33
2019-01-08T11:59:30.607Z,2.10
2019-01-08T12:01:57.713Z,2.07
2019-01-08T12:04:24.309Z,1.40
2019-01-08T12:06:50.835Z,1.53
2019-01-08T12:09:17.451Z,1.80
2019-01-08T12:11:44.020Z,1.50
2019-01-08T12:14:10.661Z,1.80
2019-01-08T12:16:37.216Z,1.73
2019-01-08T12:19:03.748Z,1.40
2019-01-08T12:21:30.378Z,1.60
2019-01-08T12:23:56.916Z,1.77
2019-01-08T12:26:23.460Z,1.70
2019-01-08T12:28:49.995Z,1.80
2019-01-08T12:31:16.553Z,2.27
2019-01-08T12:33:43.191Z,2.00
2019-01-08T12:36:09.747Z,1.50
2019-01-08T12:38:36.288Z,1.63
2019-01-08T12:41:02.847Z,1.90
2019-01-08T12:43:29.403Z,1.80
2019-01-08T12:45:55.952Z,2.37
2019-01-08T12:48:22.501Z,1.87
2019-01-08T12:50:49.092Z,1.97
2019-01-08T12:53:15.636Z,2.00
2019-01-08T12:55:42.188Z,2.03
2019-01-08T12:58:08.735Z,1.97
2019-01-08T13:00:35.279Z,2.10
2019-01-08T13:03:01.900Z,2.13
2019-01-08T13:05:28.444Z,1.77
2019-01-08T13:07:54.979Z,1.50
2019-01-08T13:10:21.516Z,1.90
2019-01-08T13:12:48.059Z,1.73
2019-01-08T13:15:14.597Z,2.03
2019-01-08T13:17:41.156Z,1.77
2019-01-08T13:20:07.734Z,2.13
2019-01-08T13:22:34.336Z,2.00
2019-01-08T13:25:00.875Z,2.00
2019-01-08T13:27:27.423Z,1.90
2019-01-08T13:29:53.963Z,2.00
2019-01-08T13:32:23.195Z,2.03
2019-01-08T13:34:48.947Z,2.20
2019-01-08T13:37:15.515Z,1.90
2019-01-08T13:39:42.056Z,2.40
2019-01-08T13:42:08.609Z,2.20
2019-01-08T13:44:35.145Z,2.20
2019-01-08T13:47:01.692Z,2.47
2019-01-08T13:49:28.587Z,1.80
2019-01-08T13:51:55.137Z,2.40
2019-01-08T13:54:21.663Z,2.13
2019-01-08T13:56:48.215Z,1.83
2019-01-08T13:59:14.767Z,2.17
2019-01-08T14:01:41.312Z,2.33
2019-01-08T14:04:07.843Z,2.43
2019-01-08T14:06:34.388Z,2.10
2019-01-08T14:09:00.919Z,2.07
2019-01-08T14:11:27.493Z,2.50
2019-01-08T14:13:54.019Z,2.47
2019-01-08T14:16:20.564Z,2.43
2019-01-08T14:18:47.096Z,2.23
2019-01-08T14:21:13.642Z,2.13
2019-01-08T14:23:40.184Z,3.00
2019-01-08T14:26:06.719Z,2.00
2019-01-08T14:28:33.369Z,2.13
2019-01-08T14:30:59.903Z,1.83
2019-01-08T14:33:26.452Z,2.30
2019-01-08T14:35:52.984Z,2.23
2019-01-08T14:38:19.546Z,1.90
2019-01-08T14:40:46.079Z,2.20
2019-01-08T14:43:14.358Z,2.20
2019-01-08T14:45:41.133Z,2.20
2019-01-08T14:48:07.683Z,1.70
2019-01-08T14:50:34.231Z,1.37
2019-01-08T14:53:00.783Z,1.77
2019-01-08T14:55:27.316Z,1.67
2019-01-08T14:57:53.863Z,1.53
2019-01-08T15:00:20.398Z,1.83
2019-01-08T15:02:49.741Z,1.50
2019-01-08T15:05:16.263Z,2.03
2019-01-08T15:07:42.810Z,1.80
2019-01-08T15:10:09.342Z,2.07
2019-01-08T15:12:35.874Z,2.17
2019-01-08T15:15:03.366Z,2.00
2019-01-08T15:17:29.905Z,2.27
2019-01-08T15:19:56.460Z,1.80
2019-01-08T15:22:23.000Z,2.17
2019-01-08T15:24:49.543Z,2.13
2019-01-08T15:27:16.107Z,2.40
2019-01-08T15:29:42.651Z,2.40
2019-01-08T15:32:09.197Z,1.90
2019-01-08T15:34:35.750Z,2.67
2019-01-08T15:37:02.284Z,2.07
2019-01-08T15:39:28.833Z,2.10
2019-01-08T15:41:55.371Z,2.27
2019-01-08T15:44:21.929Z,2.43
2019-01-08T15:46:48.455Z,2.07
2019-01-08T15:49:15.015Z,2.23
2019-01-08T15:51:41.547Z,2.20
2019-01-08T15:54:08.096Z,2.30
2019-01-08T15:56:34.636Z,2.20
2019-01-08T15:59:01.180Z,2.60
2019-01-08T16:01:27.717Z,2.80
2019-01-08T16:03:54.267Z,2.30
2019-01-08T16:06:20.808Z,2.10
2019-01-08T16:08:47.351Z,2.27
2019-01-08T16:11:13.895Z,2.30
2019-01-08T16:13:40.564Z,1.60
2019-01-08T16:16:07.100Z,2.40
2019-01-08T16:18:33.658Z,2.27
2019-01-08T16:21:00.201Z,2.47
2019-01-08T16:23:26.748Z,1.90
2019-01-08T16:25:53.299Z,2.13
2019-01-08T16:28:19.835Z,2.50
2019-01-08T16:30:46.387Z,2.03
2019-01-08T16:33:16.194Z,1.90
2019-01-08T16:35:41.388Z,2.13
2019-01-08T16:38:07.919Z,2.60
2019-01-08T16:40:34.477Z,2.60
2019-01-08T16:43:01.020Z,1.90
2019-01-08T16:45:27.563Z,2.30
2019-01-08T16:47:54.107Z,2.47
2019-01-08T16:50:20.666Z,2.73
2019-01-08T16:52:47.208Z,1.97
2019-01-08T16:55:13.763Z,2.03
2019-01-08T16:57:40.381Z,2.27
2019-01-08T17:00:08.460Z,2.33
2019-01-08T17:02:34.993Z,1.73
2019-01-08T17:05:02.567Z,2.30
2019-01-08T17:07:29.140Z,2.67
2019-01-08T17:09:55.761Z,2.27
2019-01-08T17:12:22.304Z,2.33
2019-01-08T17:14:48.852Z,2.90
2019-01-08T17:17:15.395Z,2.17
2019-01-08T17:19:41.937Z,2.43
2019-01-08T17:22:08.468Z,2.47
2019-01-08T17:24:35.022Z,2.70
2019-01-08T17:27:01.624Z,2.40
2019-01-08T17:29:28.213Z,2.43
2019-01-08T17:31:54.755Z,2.10
2019-01-08T17:34:21.287Z,2.23
2019-01-08T17:36:47.855Z,2.23
2019-01-08T17:39:14.405Z,1.87
2019-01-08T17:41:41.039Z,2.60
2019-01-08T17:44:07.571Z,1.90
2019-01-08T17:46:34.120Z,2.40
2019-01-08T17:49:00.656Z,3.37
2019-01-08T17:51:27.217Z,2.33
2019-01-08T17:53:53.953Z,1.93
2019-01-08T17:56:20.501Z,2.40
2019-01-08T17:58:47.452Z,2.60
2019-01-08T18:01:18.495Z,2.97
2019-01-08T18:03:45.833Z,2.77
2019-01-08T18:06:12.756Z,3.03
2019-01-08T18:08:39.283Z,2.17
2019-01-08T18:11:05.835Z,3.20
2019-01-08T18:13:32.368Z,3.10
2019-01-08T18:15:58.916Z,2.10
2019-01-08T18:18:25.461Z,2.10
2019-01-08T18:20:52.008Z,2.63
2019-01-08T18:23:18.547Z,3.13
2019-01-08T18:25:45.107Z,2.37
2019-01-08T18:28:11.675Z,2.67
2019-01-08T18:30:38.511Z,3.40
2019-01-08T18:33:05.048Z,2.50
2019-01-08T18:35:31.599Z,1.97
2019-01-08T18:37:58.159Z,2.23
2019-01-08T18:40:24.708Z,2.03
2019-01-08T18:42:51.238Z,2.63
2019-01-08T18:45:17.790Z,2.50
2019-01-08T18:47:44.648Z,1.77
2019-01-08T18:50:11.294Z,1.93
2019-01-08T18:52:37.847Z,2.10
2019-01-08T18:55:04.387Z,2.27
2019-01-08T18:57:30.923Z,2.50
2019-01-08T18:59:57.465Z,1.97
2019-01-08T19:02:24.011Z,2.13
2019-01-08T19:04:50.563Z,2.13
2019-01-08T19:07:17.124Z,2.03
2019-01-08T19:09:43.773Z,2.17
2019-01-08T19:12:10.327Z,2.03
2019-01-08T19:14:36.859Z,1.83
2019-01-08T19:17:03.419Z,2.57
2019-01-08T19:19:29.958Z,2.10
2019-01-08T19:21:56.520Z,1.93
2019-01-08T19:24:23.068Z,2.43
2019-01-08T19:26:49.959Z,1.90
2019-01-08T19:29:16.495Z,2.60
2019-01-08T19:31:43.075Z,2.10
2019-01-08T19:34:09.745Z,2.67
2019-01-08T19:36:36.359Z,2.70
2019-01-08T19:39:04.315Z,3.03
2019-01-08T19:41:30.851Z,2.23
2019-01-08T19:43:57.406Z,2.03
2019-01-08T19:46:23.940Z,2.30
2019-01-08T19:48:50.491Z,1.70
2019-01-08T19:51:17.043Z,2.30
2019-01-08T19:53:43.595Z,2.63
2019-01-08T19:56:10.131Z,2.27
2019-01-08T19:58:36.734Z,2.13
2019-01-08T20:01:03.329Z,2.00
2019-01-08T20:03:29.872Z,2.10
2019-01-08T20:05:56.409Z,2.17
2019-01-08T20:08:22.964Z,2.17
2019-01-08T20:10:49.578Z,1.87
2019-01-08T20:13:16.271Z,2.13
2019-01-08T20:15:42.804Z,1.47
2019-01-08T20:18:09.355Z,1.80
2019-01-08T20:20:35.894Z,2.17
2019-01-08T20:23:02.443Z,2.30
2019-01-08T20:25:28.994Z,1.93
2019-01-08T20:27:55.549Z,2.00
2019-01-08T20:30:22.256Z,1.30
2019-01-08T20:32:49.010Z,2.27
2019-01-08T20:35:15.551Z,1.87
2019-01-08T20:37:42.133Z,1.97
2019-01-08T20:40:10.062Z,1.70
2019-01-08T20:42:36.812Z,1.90
2019-01-08T20:45:03.864Z,2.60
2019-01-08T20:47:30.443Z,2.00
2019-01-08T20:49:56.991Z,2.23
2019-01-08T20:52:23.543Z,2.30
2019-01-08T20:54:50.111Z,2.00
2019-01-08T20:57:16.649Z,2.13
2019-01-08T20:59:43.472Z,1.90
2019-01-08T21:02:10.033Z,1.50
2019-01-08T21:04:36.581Z,1.73
2019-01-08T21:07:03.123Z,1.50
2019-01-08T21:09:29.667Z,2.03
2019-01-08T21:11:56.212Z,1.90
2019-01-08T21:14:22.760Z,1.80
2019-01-08T21:16:49.297Z,1.77
2019-01-08T21:19:15.851Z,2.00
2019-01-08T21:21:42.391Z,1.70
2019-01-08T21:24:08.994Z,1.70
2019-01-08T21:26:36.276Z,1.97
2019-01-08T21:29:05.863Z,1.87
2019-01-08T21:31:33.137Z,1.87
2019-01-08T21:34:01.620Z,2.10
2019-01-08T21:36:28.587Z,2.47
2019-01-08T21:38:55.464Z,1.77
2019-01-08T21:41:22.012Z,1.53
2019-01-08T21:43:48.556Z,1.70
2019-01-08T21:46:15.107Z,1.70
2019-01-08T21:48:41.660Z,1.53
2019-01-08T21:51:08.211Z,1.90
2019-01-08T21:53:34.751Z,2.40
2019-01-08T21:56:01.299Z,1.80
2019-01-08T21:58:27.846Z,1.60
2019-01-08T22:00:55.498Z,2.20
2019-01-08T22:03:22.040Z,1.87
2019-01-08T22:05:48.586Z,1.57
2019-01-08T22:08:15.122Z,1.90
2019-01-08T22:10:41.972Z,1.73
2019-01-08T22:13:08.519Z,1.93
2019-01-08T22:15:35.065Z,1.70
2019-01-08T22:18:01.595Z,1.50
2019-01-08T22:20:28.155Z,1.53
2019-01-08T22:22:54.896Z,1.70
2019-01-08T22:25:21.451Z,2.10
2019-01-08T22:27:47.987Z,2.10
2019-01-08T22:30:14.553Z,1.90
2019-01-08T22:32:41.178Z,1.83
2019-01-08T22:35:07.719Z,1.60
2019-01-08T22:37:34.255Z,1.90
2019-01-08T22:40:00.810Z,1.73
2019-01-08T22:42:27.347Z,1.70
2019-01-08T22:44:53.896Z,1.67
2019-01-08T22:47:20.431Z,1.93
2019-01-08T22:49:46.992Z,1.37
2019-01-08T22:52:13.535Z,1.60
2019-01-08T22:54:40.083Z,1.50
2019-01-08T22:57:06.618Z,1.90
2019-01-08T22:59:33.163Z,1.90
2019-01-08T23:01:59.902Z,2.03
2019-01-08T23:04:26.459Z,1.80
2019-01-08T23:06:53.001Z,2.03
2019-01-08T23:09:19.617Z,1.93
2019-01-08T23:11:46.175Z,1.67
2019-01-08T23:14:12.725Z,1.87
2019-01-08T23:16:39.260Z,1.60
2019-01-08T23:19:06.504Z,1.80
2019-01-08T23:21:33.055Z,2.00
2019-01-08T23:23:59.591Z,2.17
2019-01-08T23:26:26.142Z,2.10
2019-01-08T23:28:52.687Z,2.27
2019-01-08T23:31:19.231Z,1.70
2019-01-08T23:33:45.774Z,1.83
2019-01-08T23:36:12.337Z,1.70
2019-01-08T23:38:38.863Z,1.50
2019-01-08T23:41:05.415Z,1.70
2019-01-08T23:43:31.955Z,1.40
2019-01-08T23:45:58.508Z,2.17
2019-01-08T23:48:25.061Z,1.30
2019-01-08T23:50:51.746Z,1.97
2019-01-08T23:53:20.192Z,2.10
2019-01-08T23:55:47.445Z,1.77
2019-01-08T23:58:13.987Z,2.30
